sensor_id;sensor_type;location;lat;lon;timestamp;pressure;altitude;pressure_sealevel;temperature;humidity
3598;BME280;1813;52.016;8.714;2023-02-11T00:01:49;-16261.94;;;-139.71;77.97
3598;BME280;1813;52.016;8.714;2023-02-11T00:04:23;-16261.94;;;-139.71;78.04
3598;BME280;1813;52.016;8.714;2023-02-11T00:07:00;-16261.94;;;-139.71;78.34
3598;BME280;1813;52.016;8.714;2023-02-11T00:09:34;-16261.94;;;-139.71;78.59
3598;BME280;1813;52.016;8.714;2023-02-11T00:12:08;-16261.94;;;-139.71;78.88
3598;BME280;1813;52.016;8.714;2023-02-11T00:14:43;-16261.94;;;-139.71;78.98
3598;BME280;1813;52.016;8.714;2023-02-11T00:17:17;-16261.94;;;-139.71;79.25
3598;BME280;1813;52.016;8.714;2023-02-11T00:19:51;-16261.94;;;-139.71;79.19
3598;BME280;1813;52.016;8.714;2023-02-11T00:22:28;-16261.94;;;-139.71;79.75
3598;BME280;1813;52.016;8.714;2023-02-11T00:25:02;-16261.94;;;-139.71;79.84
3598;BME280;1813;52.016;8.714;2023-02-11T00:27:36;-16261.94;;;-139.71;79.97
3598;BME280;1813;52.016;8.714;2023-02-11T00:30:10;-16261.94;;;-139.71;80.22
3598;BME280;1813;52.016;8.714;2023-02-11T00:32:44;-16261.94;;;-139.71;80.62
3598;BME280;1813;52.016;8.714;2023-02-11T00:35:18;-16261.94;;;-139.71;80.62
3598;BME280;1813;52.016;8.714;2023-02-11T00:37:55;-16261.94;;;-139.71;80.54
3598;BME280;1813;52.016;8.714;2023-02-11T00:40:29;-16261.94;;;-139.71;80.87
3598;BME280;1813;52.016;8.714;2023-02-11T00:43:03;-16261.94;;;-139.71;80.99
3598;BME280;1813;52.016;8.714;2023-02-11T00:45:36;-16261.94;;;-139.71;80.88
3598;BME280;1813;52.016;8.714;2023-02-11T00:48:10;-16261.94;;;-139.71;80.99
3598;BME280;1813;52.016;8.714;2023-02-11T00:50:44;-16261.94;;;-139.71;80.95
3598;BME280;1813;52.016;8.714;2023-02-11T00:53:20;-16261.94;;;-139.71;81.02
3598;BME280;1813;52.016;8.714;2023-02-11T00:55:54;-16261.94;;;-139.71;81.17
3598;BME280;1813;52.016;8.714;2023-02-11T00:58:29;-16261.94;;;-139.71;81.09
3598;BME280;1813;52.016;8.714;2023-02-11T01:01:04;-16261.94;;;-139.71;80.92
3598;BME280;1813;52.016;8.714;2023-02-11T01:03:38;-16261.94;;;-139.71;81.09
3598;BME280;1813;52.016;8.714;2023-02-11T01:06:12;-16261.94;;;-139.71;81.16
3598;BME280;1813;52.016;8.714;2023-02-11T01:08:48;-16261.94;;;-139.71;81.35
3598;BME280;1813;52.016;8.714;2023-02-11T01:11:22;-16261.94;;;-139.71;81.53
3598;BME280;1813;52.016;8.714;2023-02-11T01:13:57;-16261.94;;;-139.71;81.66
3598;BME280;1813;52.016;8.714;2023-02-11T01:16:31;-16261.94;;;-139.71;81.84
3598;BME280;1813;52.016;8.714;2023-02-11T01:19:05;-16261.94;;;-139.71;81.92
3598;BME280;1813;52.016;8.714;2023-02-11T01:21:39;-16261.94;;;-139.71;82.27
3598;BME280;1813;52.016;8.714;2023-02-11T01:24:16;-16261.94;;;-139.71;82.65
3598;BME280;1813;52.016;8.714;2023-02-11T01:26:49;-16261.94;;;-139.71;82.87
3598;BME280;1813;52.016;8.714;2023-02-11T01:29:23;-16261.94;;;-139.71;83.22
3598;BME280;1813;52.016;8.714;2023-02-11T01:31:59;-16261.94;;;-139.71;83.68
3598;BME280;1813;52.016;8.714;2023-02-11T01:34:33;-16261.94;;;-139.71;83.96
3598;BME280;1813;52.016;8.714;2023-02-11T01:37:07;-16261.94;;;-139.71;84.24
3598;BME280;1813;52.016;8.714;2023-02-11T01:39:43;-16261.94;;;-139.71;84.59
3598;BME280;1813;52.016;8.714;2023-02-11T01:42:19;-16261.94;;;-139.71;84.81
3598;BME280;1813;52.016;8.714;2023-02-11T01:44:59;-16261.94;;;-139.71;85.20
3598;BME280;1813;52.016;8.714;2023-02-11T01:47:33;-16261.94;;;-139.71;85.64
3598;BME280;1813;52.016;8.714;2023-02-11T01:50:07;-16261.94;;;-139.71;86.00
3598;BME280;1813;52.016;8.714;2023-02-11T01:52:42;-16261.94;;;-139.71;86.55
3598;BME280;1813;52.016;8.714;2023-02-11T01:55:22;-16261.94;;;-139.71;86.76
3598;BME280;1813;52.016;8.714;2023-02-11T01:58:08;-16261.94;;;-139.71;87.19
3598;BME280;1813;52.016;8.714;2023-02-11T02:00:42;-16261.94;;;-139.71;87.60
3598;BME280;1813;52.016;8.714;2023-02-11T02:03:19;-16261.94;;;-139.71;87.66
3598;BME280;1813;52.016;8.714;2023-02-11T02:05:58;-16261.94;;;-139.71;87.70
3598;BME280;1813;52.016;8.714;2023-02-11T02:08:37;-16261.94;;;-139.71;88.43
3598;BME280;1813;52.016;8.714;2023-02-11T02:11:14;-16261.94;;;-139.71;89.30
3598;BME280;1813;52.016;8.714;2023-02-11T02:13:48;-16261.94;;;-139.71;89.41
3598;BME280;1813;52.016;8.714;2023-02-11T02:16:29;-16261.94;;;-139.71;89.63
3598;BME280;1813;52.016;8.714;2023-02-11T02:19:42;-16261.94;;;-139.71;89.88
3598;BME280;1813;52.016;8.714;2023-02-11T02:22:46;-16261.94;;;-139.71;89.99
3598;BME280;1813;52.016;8.714;2023-02-11T02:25:39;-16261.94;;;-139.71;90.26
3598;BME280;1813;52.016;8.714;2023-02-11T02:28:35;-16261.94;;;-139.71;90.38
3598;BME280;1813;52.016;8.714;2023-02-11T02:31:30;-16261.94;;;-139.71;90.72
3598;BME280;1813;52.016;8.714;2023-02-11T02:34:12;-16261.94;;;-139.71;90.79
3598;BME280;1813;52.016;8.714;2023-02-11T02:36:55;-16261.94;;;-139.71;91.00
3598;BME280;1813;52.016;8.714;2023-02-11T02:39:35;-16261.94;;;-139.71;91.22
3598;BME280;1813;52.016;8.714;2023-02-11T02:42:09;-16261.94;;;-139.71;91.25
3598;BME280;1813;52.016;8.714;2023-02-11T02:44:47;-16261.94;;;-139.71;91.30
3598;BME280;1813;52.016;8.714;2023-02-11T02:47:21;-16261.94;;;-139.71;92.02
3598;BME280;1813;52.016;8.714;2023-02-11T02:49:57;-16261.94;;;-139.71;92.13
3598;BME280;1813;52.016;8.714;2023-02-11T02:52:34;-16261.94;;;-139.71;92.06
3598;BME280;1813;52.016;8.714;2023-02-11T02:55:20;-16261.94;;;-139.71;92.19
3598;BME280;1813;52.016;8.714;2023-02-11T02:58:08;-16261.94;;;-139.71;92.07
3598;BME280;1813;52.016;8.714;2023-02-11T03:00:50;-16261.94;;;-139.71;92.25
3598;BME280;1813;52.016;8.714;2023-02-11T03:03:34;-16261.94;;;-139.71;92.53
3598;BME280;1813;52.016;8.714;2023-02-11T03:06:22;-16261.94;;;-139.71;92.41
3598;BME280;1813;52.016;8.714;2023-02-11T03:09:05;-16261.94;;;-139.71;92.50
3598;BME280;1813;52.016;8.714;2023-02-11T03:11:39;-16261.94;;;-139.71;92.64
3598;BME280;1813;52.016;8.714;2023-02-11T03:14:15;-16261.94;;;-139.71;92.81
3598;BME280;1813;52.016;8.714;2023-02-11T03:16:51;-16261.94;;;-139.71;92.78
3598;BME280;1813;52.016;8.714;2023-02-11T03:19:29;-16261.94;;;-139.71;92.88
3598;BME280;1813;52.016;8.714;2023-02-11T03:22:12;-16261.94;;;-139.71;92.74
3598;BME280;1813;52.016;8.714;2023-02-11T03:24:49;-16261.94;;;-139.71;93.26
3598;BME280;1813;52.016;8.714;2023-02-11T03:27:27;-16261.94;;;-139.71;93.20
3598;BME280;1813;52.016;8.714;2023-02-11T03:30:08;-16261.94;;;-139.71;93.44
3598;BME280;1813;52.016;8.714;2023-02-11T03:32:47;-16261.94;;;-139.71;93.70
3598;BME280;1813;52.016;8.714;2023-02-11T03:35:24;-16261.94;;;-139.71;94.47
3598;BME280;1813;52.016;8.714;2023-02-11T03:38:05;-16261.94;;;-139.71;94.56
3598;BME280;1813;52.016;8.714;2023-02-11T03:40:42;-16261.94;;;-139.71;94.74
3598;BME280;1813;52.016;8.714;2023-02-11T03:43:19;-16261.94;;;-139.71;94.72
3598;BME280;1813;52.016;8.714;2023-02-11T03:45:55;-16261.94;;;-139.71;94.90
3598;BME280;1813;52.016;8.714;2023-02-11T03:48:32;-16261.94;;;-139.71;94.98
3598;BME280;1813;52.016;8.714;2023-02-11T03:51:08;-16261.94;;;-139.71;95.14
3598;BME280;1813;52.016;8.714;2023-02-11T03:53:46;-16261.94;;;-139.71;95.24
3598;BME280;1813;52.016;8.714;2023-02-11T03:56:25;-16261.94;;;-139.71;96.61
3598;BME280;1813;52.016;8.714;2023-02-11T03:59:00;-16261.94;;;-139.71;96.67
3598;BME280;1813;52.016;8.714;2023-02-11T04:01:34;-16261.94;;;-139.71;98.94
3598;BME280;1813;52.016;8.714;2023-02-11T04:04:08;-16261.94;;;-139.71;98.80
3598;BME280;1813;52.016;8.714;2023-02-11T04:06:42;-16261.94;;;-139.71;98.83
3598;BME280;1813;52.016;8.714;2023-02-11T04:09:18;-16261.94;;;-139.71;98.60
3598;BME280;1813;52.016;8.714;2023-02-11T04:11:52;-16261.94;;;-139.71;98.83
3598;BME280;1813;52.016;8.714;2023-02-11T04:14:26;-16261.94;;;-139.71;98.90
3598;BME280;1813;52.016;8.714;2023-02-11T04:17:01;-16261.94;;;-139.71;98.76
3598;BME280;1813;52.016;8.714;2023-02-11T04:19:35;-16261.94;;;-139.71;98.79
3598;BME280;1813;52.016;8.714;2023-02-11T04:22:09;-16261.94;;;-139.71;99.00
3598;BME280;1813;52.016;8.714;2023-02-11T04:24:46;-16261.94;;;-139.71;98.74
3598;BME280;1813;52.016;8.714;2023-02-11T04:27:22;-16261.94;;;-139.71;98.74
3598;BME280;1813;52.016;8.714;2023-02-11T04:29:56;-16261.94;;;-139.71;98.66
3598;BME280;1813;52.016;8.714;2023-02-11T04:32:30;-16261.94;;;-139.71;98.65
3598;BME280;1813;52.016;8.714;2023-02-11T04:35:05;-16261.94;;;-139.71;98.44
3598;BME280;1813;52.016;8.714;2023-02-11T04:37:39;-16261.94;;;-139.71;98.39
3598;BME280;1813;52.016;8.714;2023-02-11T04:40:15;-16261.94;;;-139.71;98.03
3598;BME280;1813;52.016;8.714;2023-02-11T04:42:49;-16261.94;;;-139.71;97.81
3598;BME280;1813;52.016;8.714;2023-02-11T04:45:23;-16261.94;;;-139.71;97.67
3598;BME280;1813;52.016;8.714;2023-02-11T04:47:57;-16261.94;;;-139.71;97.59
3598;BME280;1813;52.016;8.714;2023-02-11T04:50:31;-16261.94;;;-139.71;97.54
3598;BME280;1813;52.016;8.714;2023-02-11T04:53:07;-16261.94;;;-139.71;97.39
3598;BME280;1813;52.016;8.714;2023-02-11T04:55:43;-16261.94;;;-139.71;97.41
3598;BME280;1813;52.016;8.714;2023-02-11T04:58:18;-16261.94;;;-139.71;97.04
3598;BME280;1813;52.016;8.714;2023-02-11T05:00:52;-16261.94;;;-139.71;96.79
3598;BME280;1813;52.016;8.714;2023-02-11T05:03:26;-16261.94;;;-139.71;96.76
3598;BME280;1813;52.016;8.714;2023-02-11T05:06:00;-16261.94;;;-139.71;96.54
3598;BME280;1813;52.016;8.714;2023-02-11T05:08:33;-16261.94;;;-139.71;96.41
3598;BME280;1813;52.016;8.714;2023-02-11T05:11:15;-16261.94;;;-139.71;96.09
3598;BME280;1813;52.016;8.714;2023-02-11T05:13:49;-16261.94;;;-139.71;95.79
3598;BME280;1813;52.016;8.714;2023-02-11T05:16:24;-16261.94;;;-139.71;95.66
3598;BME280;1813;52.016;8.714;2023-02-11T05:18:58;-16261.94;;;-139.71;95.77
3598;BME280;1813;52.016;8.714;2023-02-11T05:21:32;-16261.94;;;-139.71;95.79
3598;BME280;1813;52.016;8.714;2023-02-11T05:24:07;-16261.94;;;-139.71;95.64
3598;BME280;1813;52.016;8.714;2023-02-11T05:26:43;-16261.94;;;-139.71;95.50
3598;BME280;1813;52.016;8.714;2023-02-11T05:29:17;-16261.94;;;-139.71;95.22
3598;BME280;1813;52.016;8.714;2023-02-11T05:31:50;-16261.94;;;-139.71;95.13
3598;BME280;1813;52.016;8.714;2023-02-11T05:34:24;-16261.94;;;-139.71;95.32
3598;BME280;1813;52.016;8.714;2023-02-11T05:36:58;-16261.94;;;-139.71;95.11
3598;BME280;1813;52.016;8.714;2023-02-11T05:39:32;-16261.94;;;-139.71;94.81
3598;BME280;1813;52.016;8.714;2023-02-11T05:42:08;-16261.94;;;-139.71;94.60
3598;BME280;1813;52.016;8.714;2023-02-11T05:44:42;-16261.94;;;-139.71;94.62
3598;BME280;1813;52.016;8.714;2023-02-11T05:47:16;-16261.94;;;-139.71;94.56
3598;BME280;1813;52.016;8.714;2023-02-11T05:49:50;-16261.94;;;-139.71;94.37
3598;BME280;1813;52.016;8.714;2023-02-11T05:52:24;-16261.94;;;-139.71;94.45
3598;BME280;1813;52.016;8.714;2023-02-11T05:54:58;-16261.94;;;-139.71;94.26
3598;BME280;1813;52.016;8.714;2023-02-11T05:57:34;-16261.94;;;-139.71;94.13
3598;BME280;1813;52.016;8.714;2023-02-11T06:00:09;-16261.94;;;-139.71;94.19
3598;BME280;1813;52.016;8.714;2023-02-11T06:02:44;-16261.94;;;-139.71;93.97
3598;BME280;1813;52.016;8.714;2023-02-11T06:05:18;-16261.94;;;-139.71;93.92
3598;BME280;1813;52.016;8.714;2023-02-11T06:07:52;-16261.94;;;-139.71;94.01
3598;BME280;1813;52.016;8.714;2023-02-11T06:10:26;-16261.94;;;-139.71;93.98
3598;BME280;1813;52.016;8.714;2023-02-11T06:13:03;-16261.94;;;-139.71;94.01
3598;BME280;1813;52.016;8.714;2023-02-11T06:15:37;-16261.94;;;-139.71;93.95
3598;BME280;1813;52.016;8.714;2023-02-11T06:18:11;-16261.94;;;-139.71;93.92
3598;BME280;1813;52.016;8.714;2023-02-11T06:20:44;-16261.94;;;-139.71;93.93
3598;BME280;1813;52.016;8.714;2023-02-11T06:23:20;-16261.94;;;-139.71;93.78
3598;BME280;1813;52.016;8.714;2023-02-11T06:25:54;-16261.94;;;-139.71;93.80
3598;BME280;1813;52.016;8.714;2023-02-11T06:28:32;-16261.94;;;-139.71;93.96
3598;BME280;1813;52.016;8.714;2023-02-11T06:31:06;-16261.94;;;-139.71;93.99
3598;BME280;1813;52.016;8.714;2023-02-11T06:33:41;-16261.94;;;-139.71;93.91
3598;BME280;1813;52.016;8.714;2023-02-11T06:36:17;-16261.94;;;-139.71;94.09
3598;BME280;1813;52.016;8.714;2023-02-11T06:38:51;-16261.94;;;-139.71;94.35
3598;BME280;1813;52.016;8.714;2023-02-11T06:41:25;-16261.94;;;-139.71;94.13
3598;BME280;1813;52.016;8.714;2023-02-11T06:44:02;-16261.94;;;-139.71;94.00
3598;BME280;1813;52.016;8.714;2023-02-11T06:46:35;-16261.94;;;-139.71;93.95
3598;BME280;1813;52.016;8.714;2023-02-11T06:49:09;-16261.94;;;-139.71;93.74
3598;BME280;1813;52.016;8.714;2023-02-11T06:51:43;-16261.94;;;-139.71;93.80
3598;BME280;1813;52.016;8.714;2023-02-11T06:54:17;-16261.94;;;-139.71;93.95
3598;BME280;1813;52.016;8.714;2023-02-11T06:56:51;-16261.94;;;-139.71;93.94
3598;BME280;1813;52.016;8.714;2023-02-11T06:59:27;-16261.94;;;-139.71;93.70
3598;BME280;1813;52.016;8.714;2023-02-11T07:02:01;-16261.94;;;-139.71;93.81
3598;BME280;1813;52.016;8.714;2023-02-11T07:04:35;-16261.94;;;-139.71;93.75
3598;BME280;1813;52.016;8.714;2023-02-11T07:07:09;-16261.94;;;-139.71;93.78
3598;BME280;1813;52.016;8.714;2023-02-11T07:09:43;-16261.94;;;-139.71;93.88
3598;BME280;1813;52.016;8.714;2023-02-11T07:12:17;-16261.94;;;-139.71;93.80
3598;BME280;1813;52.016;8.714;2023-02-11T07:14:54;-16261.94;;;-139.71;93.89
3598;BME280;1813;52.016;8.714;2023-02-11T07:17:28;-16261.94;;;-139.71;93.94
3598;BME280;1813;52.016;8.714;2023-02-11T07:20:04;-16261.94;;;-139.71;94.03
3598;BME280;1813;52.016;8.714;2023-02-11T07:22:38;-16261.94;;;-139.71;94.06
3598;BME280;1813;52.016;8.714;2023-02-11T07:25:12;-16261.94;;;-139.71;94.01
3598;BME280;1813;52.016;8.714;2023-02-11T07:27:46;-16261.94;;;-139.71;94.15
3598;BME280;1813;52.016;8.714;2023-02-11T07:30:23;-16261.94;;;-139.71;93.98
3598;BME280;1813;52.016;8.714;2023-02-11T07:32:56;-16261.94;;;-139.71;94.05
3598;BME280;1813;52.016;8.714;2023-02-11T07:35:31;-16261.94;;;-139.71;94.20
3598;BME280;1813;52.016;8.714;2023-02-11T07:38:04;-16261.94;;;-139.71;94.11
3598;BME280;1813;52.016;8.714;2023-02-11T07:40:38;-16261.94;;;-139.71;94.29
3598;BME280;1813;52.016;8.714;2023-02-11T07:43:12;-16261.94;;;-139.71;94.25
3598;BME280;1813;52.016;8.714;2023-02-11T07:45:48;-16261.94;;;-139.71;94.35
3598;BME280;1813;52.016;8.714;2023-02-11T07:48:22;-16261.94;;;-139.71;94.47
3598;BME280;1813;52.016;8.714;2023-02-11T07:51:04;-16261.94;;;-139.71;94.55
3598;BME280;1813;52.016;8.714;2023-02-11T07:53:38;-16261.94;;;-139.71;94.53
3598;BME280;1813;52.016;8.714;2023-02-11T07:56:14;-16261.94;;;-139.71;94.48
3598;BME280;1813;52.016;8.714;2023-02-11T07:58:48;-16261.94;;;-139.71;94.53
3598;BME280;1813;52.016;8.714;2023-02-11T08:01:25;-16261.94;;;-139.71;94.53
3598;BME280;1813;52.016;8.714;2023-02-11T08:04:00;-16261.94;;;-139.71;94.72
3598;BME280;1813;52.016;8.714;2023-02-11T08:06:40;-16261.94;;;-139.71;94.81
3598;BME280;1813;52.016;8.714;2023-02-11T08:09:15;-16261.94;;;-139.71;94.89
3598;BME280;1813;52.016;8.714;2023-02-11T08:11:49;-16261.94;;;-139.71;95.07
3598;BME280;1813;52.016;8.714;2023-02-11T08:14:23;-16261.94;;;-139.71;95.04
3598;BME280;1813;52.016;8.714;2023-02-11T08:17:00;-16261.94;;;-139.71;95.01
3598;BME280;1813;52.016;8.714;2023-02-11T08:19:34;-16261.94;;;-139.71;95.22
3598;BME280;1813;52.016;8.714;2023-02-11T08:22:08;-16261.94;;;-139.71;95.15
3598;BME280;1813;52.016;8.714;2023-02-11T08:24:43;-16261.94;;;-139.71;95.28
3598;BME280;1813;52.016;8.714;2023-02-11T08:27:17;-16261.94;;;-139.71;95.44
3598;BME280;1813;52.016;8.714;2023-02-11T08:29:53;-16261.94;;;-139.71;95.57
3598;BME280;1813;52.016;8.714;2023-02-11T08:32:33;-16261.94;;;-139.71;95.76
3598;BME280;1813;52.016;8.714;2023-02-11T08:35:09;-16261.94;;;-139.71;95.74
3598;BME280;1813;52.016;8.714;2023-02-11T08:37:43;-16261.94;;;-139.71;95.83
3598;BME280;1813;52.016;8.714;2023-02-11T08:40:17;-16261.94;;;-139.71;95.74
3598;BME280;1813;52.016;8.714;2023-02-11T08:42:51;-16261.94;;;-139.71;95.70
3598;BME280;1813;52.016;8.714;2023-02-11T08:45:25;-16261.94;;;-139.71;95.77
3598;BME280;1813;52.016;8.714;2023-02-11T08:48:01;-16261.94;;;-139.71;95.72
3598;BME280;1813;52.016;8.714;2023-02-11T08:50:37;-16261.94;;;-139.71;95.87
3598;BME280;1813;52.016;8.714;2023-02-11T08:53:11;-16261.94;;;-139.71;95.90
3598;BME280;1813;52.016;8.714;2023-02-11T08:55:48;-16261.94;;;-139.71;96.26
3598;BME280;1813;52.016;8.714;2023-02-11T08:58:21;-16261.94;;;-139.71;96.29
3598;BME280;1813;52.016;8.714;2023-02-11T09:00:55;-16261.94;;;-139.71;96.29
3598;BME280;1813;52.016;8.714;2023-02-11T09:03:32;-16261.94;;;-139.71;96.38
3598;BME280;1813;52.016;8.714;2023-02-11T09:06:06;-16261.94;;;-139.71;96.38
3598;BME280;1813;52.016;8.714;2023-02-11T09:08:43;-16261.94;;;-139.71;96.48
3598;BME280;1813;52.016;8.714;2023-02-11T09:11:21;-16261.94;;;-139.71;96.71
3598;BME280;1813;52.016;8.714;2023-02-11T09:13:57;-16261.94;;;-139.71;96.77
3598;BME280;1813;52.016;8.714;2023-02-11T09:16:34;-16261.94;;;-139.71;96.84
3598;BME280;1813;52.016;8.714;2023-02-11T09:19:11;-16261.94;;;-139.71;96.95
3598;BME280;1813;52.016;8.714;2023-02-11T09:21:46;-16261.94;;;-139.71;97.02
3598;BME280;1813;52.016;8.714;2023-02-11T09:24:19;-16261.94;;;-139.71;97.07
3598;BME280;1813;52.016;8.714;2023-02-11T09:26:53;-16261.94;;;-139.71;97.16
3598;BME280;1813;52.016;8.714;2023-02-11T09:29:27;-16261.94;;;-139.71;97.16
3598;BME280;1813;52.016;8.714;2023-02-11T09:32:01;-16261.94;;;-139.71;97.30
3598;BME280;1813;52.016;8.714;2023-02-11T09:34:37;-16261.94;;;-139.71;97.12
3598;BME280;1813;52.016;8.714;2023-02-11T09:37:11;-16261.94;;;-139.71;97.23
3598;BME280;1813;52.016;8.714;2023-02-11T09:39:45;-16261.94;;;-139.71;97.11
3598;BME280;1813;52.016;8.714;2023-02-11T09:42:36;-16261.94;;;-139.71;97.16
3598;BME280;1813;52.016;8.714;2023-02-11T09:45:16;-16261.94;;;-139.71;97.44
3598;BME280;1813;52.016;8.714;2023-02-11T09:47:54;-16261.94;;;-139.71;97.58
3598;BME280;1813;52.016;8.714;2023-02-11T09:50:33;-16261.94;;;-139.71;97.49
3598;BME280;1813;52.016;8.714;2023-02-11T09:53:12;-16261.94;;;-139.71;97.58
3598;BME280;1813;52.016;8.714;2023-02-11T09:55:52;-16261.94;;;-139.71;97.54
3598;BME280;1813;52.016;8.714;2023-02-11T09:58:31;-16261.94;;;-139.71;97.47
3598;BME280;1813;52.016;8.714;2023-02-11T10:01:09;-16261.94;;;-139.71;97.38
3598;BME280;1813;52.016;8.714;2023-02-11T10:04:00;-16261.94;;;-139.71;97.42
3598;BME280;1813;52.016;8.714;2023-02-11T10:06:42;-16261.94;;;-139.71;97.25
3598;BME280;1813;52.016;8.714;2023-02-11T10:09:39;-16261.94;;;-139.71;97.37
3598;BME280;1813;52.016;8.714;2023-02-11T10:15:23;-16261.94;;;-139.71;97.38
3598;BME280;1813;52.016;8.714;2023-02-11T10:18:17;-16261.94;;;-139.71;97.44
3598;BME280;1813;52.016;8.714;2023-02-11T10:21:07;-16261.94;;;-139.71;97.54
3598;BME280;1813;52.016;8.714;2023-02-11T10:23:48;-16261.94;;;-139.71;97.65
3598;BME280;1813;52.016;8.714;2023-02-11T10:26:28;-16261.94;;;-139.71;97.54
3598;BME280;1813;52.016;8.714;2023-02-11T10:29:13;-16261.94;;;-139.71;97.49
3598;BME280;1813;52.016;8.714;2023-02-11T10:31:53;-16261.94;;;-139.71;97.74
3598;BME280;1813;52.016;8.714;2023-02-11T10:34:27;-16261.94;;;-139.71;97.79
3598;BME280;1813;52.016;8.714;2023-02-11T10:37:01;-16261.94;;;-139.71;97.96
3598;BME280;1813;52.016;8.714;2023-02-11T10:39:39;-16261.94;;;-139.71;97.89
3598;BME280;1813;52.016;8.714;2023-02-11T10:42:13;-16261.94;;;-139.71;98.09
3598;BME280;1813;52.016;8.714;2023-02-11T10:44:55;-16261.94;;;-139.71;97.96
3598;BME280;1813;52.016;8.714;2023-02-11T10:47:33;-16261.94;;;-139.71;98.11
3598;BME280;1813;52.016;8.714;2023-02-11T10:50:22;-16261.94;;;-139.71;97.93
3598;BME280;1813;52.016;8.714;2023-02-11T10:53:11;-16261.94;;;-139.71;98.24
3598;BME280;1813;52.016;8.714;2023-02-11T10:55:54;-16261.94;;;-139.71;98.36
3598;BME280;1813;52.016;8.714;2023-02-11T10:58:30;-16261.94;;;-139.71;98.41
3598;BME280;1813;52.016;8.714;2023-02-11T11:01:06;-16261.94;;;-139.71;98.51
3598;BME280;1813;52.016;8.714;2023-02-11T11:03:46;-16261.94;;;-139.71;98.63
3598;BME280;1813;52.016;8.714;2023-02-11T11:06:29;-16261.94;;;-139.71;98.51
3598;BME280;1813;52.016;8.714;2023-02-11T11:09:04;-16261.94;;;-139.71;98.61
3598;BME280;1813;52.016;8.714;2023-02-11T11:11:50;-16261.94;;;-139.71;98.55
3598;BME280;1813;52.016;8.714;2023-02-11T11:14:27;-16261.94;;;-139.71;98.78
3598;BME280;1813;52.016;8.714;2023-02-11T11:17:01;-16261.94;;;-139.71;98.85
3598;BME280;1813;52.016;8.714;2023-02-11T11:19:35;-16261.94;;;-139.71;98.97
3598;BME280;1813;52.016;8.714;2023-02-11T11:22:19;-16261.94;;;-139.71;98.96
3598;BME280;1813;52.016;8.714;2023-02-11T11:24:53;-16261.94;;;-139.71;98.87
3598;BME280;1813;52.016;8.714;2023-02-11T11:27:34;-16261.94;;;-139.71;98.70
3598;BME280;1813;52.016;8.714;2023-02-11T11:30:14;-16261.94;;;-139.71;98.85
3598;BME280;1813;52.016;8.714;2023-02-11T11:32:49;-16261.94;;;-139.71;98.99
3598;BME280;1813;52.016;8.714;2023-02-11T11:35:25;-16261.94;;;-139.71;99.06
3598;BME280;1813;52.016;8.714;2023-02-11T11:38:01;-16261.94;;;-139.71;99.07
3598;BME280;1813;52.016;8.714;2023-02-11T11:40:37;-16261.94;;;-139.71;98.83
3598;BME280;1813;52.016;8.714;2023-02-11T11:43:25;-16261.94;;;-139.71;98.96
3598;BME280;1813;52.016;8.714;2023-02-11T11:45:59;-16261.94;;;-139.71;98.98
3598;BME280;1813;52.016;8.714;2023-02-11T11:48:38;-16261.94;;;-139.71;98.76
3598;BME280;1813;52.016;8.714;2023-02-11T11:51:14;-16261.94;;;-139.71;98.86
3598;BME280;1813;52.016;8.714;2023-02-11T11:53:53;-16261.94;;;-139.71;98.98
3598;BME280;1813;52.016;8.714;2023-02-11T11:56:33;-16261.94;;;-139.71;98.82
3598;BME280;1813;52.016;8.714;2023-02-11T11:59:13;-16261.94;;;-139.71;98.73
3598;BME280;1813;52.016;8.714;2023-02-11T12:02:03;-16261.94;;;-139.71;98.63
3598;BME280;1813;52.016;8.714;2023-02-11T12:05:00;-16261.94;;;-139.71;98.78
3598;BME280;1813;52.016;8.714;2023-02-11T12:07:53;-16261.94;;;-139.71;98.70
3598;BME280;1813;52.016;8.714;2023-02-11T12:10:36;-16261.94;;;-139.71;98.53
3598;BME280;1813;52.016;8.714;2023-02-11T12:13:21;-16261.94;;;-139.71;98.61
3598;BME280;1813;52.016;8.714;2023-02-11T12:16:11;-16261.94;;;-139.71;98.60
3598;BME280;1813;52.016;8.714;2023-02-11T12:19:18;-16261.94;;;-139.71;98.41
3598;BME280;1813;52.016;8.714;2023-02-11T12:22:01;-16261.94;;;-139.71;98.54
3598;BME280;1813;52.016;8.714;2023-02-11T12:24:55;-16261.94;;;-139.71;98.47
3598;BME280;1813;52.016;8.714;2023-02-11T12:27:42;-16261.94;;;-139.71;98.37
3598;BME280;1813;52.016;8.714;2023-02-11T12:33:39;-16261.94;;;-139.71;98.37
3598;BME280;1813;52.016;8.714;2023-02-11T12:36:26;-16261.94;;;-139.71;98.45
3598;BME280;1813;52.016;8.714;2023-02-11T12:39:15;-16261.94;;;-139.71;98.35
3598;BME280;1813;52.016;8.714;2023-02-11T12:42:04;-16261.94;;;-139.71;98.34
3598;BME280;1813;52.016;8.714;2023-02-11T12:45:13;-16261.94;;;-139.71;98.26
3598;BME280;1813;52.016;8.714;2023-02-11T12:48:00;-16261.94;;;-139.71;98.34
3598;BME280;1813;52.016;8.714;2023-02-11T12:50:45;-16261.94;;;-139.71;98.25
3598;BME280;1813;52.016;8.714;2023-02-11T12:53:46;-16261.94;;;-139.71;98.22
3598;BME280;1813;52.016;8.714;2023-02-11T12:56:27;-16261.94;;;-139.71;98.16
3598;BME280;1813;52.016;8.714;2023-02-11T12:59:04;-16261.94;;;-139.71;98.05
3598;BME280;1813;52.016;8.714;2023-02-11T13:01:43;-16261.94;;;-139.71;98.00
3598;BME280;1813;52.016;8.714;2023-02-11T13:04:23;-16261.94;;;-139.71;97.81
3598;BME280;1813;52.016;8.714;2023-02-11T13:07:08;-16261.94;;;-139.71;97.58
3598;BME280;1813;52.016;8.714;2023-02-11T13:09:47;-16261.94;;;-139.71;97.37
3598;BME280;1813;52.016;8.714;2023-02-11T13:12:28;-16261.94;;;-139.71;97.28
3598;BME280;1813;52.016;8.714;2023-02-11T13:15:15;-16261.94;;;-139.71;97.24
3598;BME280;1813;52.016;8.714;2023-02-11T13:17:55;-16261.94;;;-139.71;96.88
3598;BME280;1813;52.016;8.714;2023-02-11T13:20:37;-16261.94;;;-139.71;96.75
3598;BME280;1813;52.016;8.714;2023-02-11T13:23:24;-16261.94;;;-139.71;96.59
3598;BME280;1813;52.016;8.714;2023-02-11T13:26:06;-16261.94;;;-139.71;96.31
3598;BME280;1813;52.016;8.714;2023-02-11T13:28:47;-16261.94;;;-139.71;96.22
3598;BME280;1813;52.016;8.714;2023-02-11T13:31:24;-16261.94;;;-139.71;96.07
3598;BME280;1813;52.016;8.714;2023-02-11T13:33:59;-16261.94;;;-139.71;95.95
3598;BME280;1813;52.016;8.714;2023-02-11T13:36:33;-16261.94;;;-139.71;96.03
3598;BME280;1813;52.016;8.714;2023-02-11T13:39:19;-16261.94;;;-139.71;95.77
3598;BME280;1813;52.016;8.714;2023-02-11T13:42:01;-16261.94;;;-139.71;95.49
3598;BME280;1813;52.016;8.714;2023-02-11T13:44:36;-16261.94;;;-139.71;95.39
3598;BME280;1813;52.016;8.714;2023-02-11T13:47:24;-16261.94;;;-139.71;95.15
3598;BME280;1813;52.016;8.714;2023-02-11T13:49:59;-16261.94;;;-139.71;95.11
3598;BME280;1813;52.016;8.714;2023-02-11T13:52:36;-16261.94;;;-139.71;95.02